createdAt,value
2017-05-26T00:02:04.662Z,34.17
2017-05-26T00:04:40.559Z,32.95
2017-05-26T00:07:15.942Z,32.42
2017-05-26T00:09:51.214Z,29.08
2017-05-26T00:12:26.517Z,31.68
2017-05-26T00:15:01.908Z,13.68
2017-05-26T00:17:37.209Z,29.32
2017-05-26T00:20:12.578Z,32.28
2017-05-26T00:22:47.870Z,29.57
2017-05-26T00:25:23.162Z,30.43
2017-05-26T00:28:02.532Z,34.07
2017-05-26T00:30:40.020Z,26.05
2017-05-26T00:33:15.419Z,29.72
2017-05-26T00:35:50.758Z,27.38
2017-05-26T00:38:25.990Z,29.60
2017-05-26T00:41:10.737Z,32.32
2017-05-26T00:43:52.939Z,27.73
2017-05-26T00:46:30.760Z,28.40
2017-05-26T00:49:06.005Z,35.78
2017-05-26T00:51:41.453Z,37.52
2017-05-26T00:54:16.615Z,31.30
2017-05-26T00:56:51.883Z,26.57
2017-05-26T00:59:27.081Z,35.68
2017-05-26T01:02:02.300Z,35.78
2017-05-26T01:04:37.576Z,27.92
2017-05-26T01:07:12.939Z,30.48
2017-05-26T01:09:48.808Z,29.12
2017-05-26T01:12:24.023Z,27.88
2017-05-26T01:14:59.309Z,34.78
2017-05-26T01:17:34.710Z,30.77
2017-05-26T01:20:10.016Z,27.38
2017-05-26T01:22:45.266Z,28.55
2017-05-26T01:25:20.522Z,32.13
2017-05-26T01:27:55.889Z,31.57
2017-05-26T01:30:31.224Z,28.27
2017-05-26T01:33:07.723Z,31.67
2017-05-26T01:35:43.153Z,30.85
2017-05-26T01:38:18.540Z,29.63
2017-05-26T01:40:53.876Z,31.95
2017-05-26T01:43:29.185Z,31.28
2017-05-26T01:46:04.469Z,27.47
2017-05-26T01:48:39.780Z,32.02
2017-05-26T01:51:15.160Z,33.97
2017-05-26T01:53:50.452Z,32.80
2017-05-26T01:56:25.717Z,30.65
2017-05-26T01:59:01.112Z,38.72
2017-05-26T02:01:36.339Z,34.67
2017-05-26T02:04:11.650Z,30.28
2017-05-26T02:06:47.033Z,30.95
2017-05-26T02:09:22.310Z,26.47
2017-05-26T02:11:57.413Z,26.73
2017-05-26T02:14:32.985Z,30.18
2017-05-26T02:17:08.310Z,26.77
2017-05-26T02:19:43.782Z,33.15
2017-05-26T02:22:19.205Z,25.70
2017-05-26T02:24:54.445Z,28.17
2017-05-26T02:27:29.626Z,29.85
2017-05-26T02:30:05.043Z,29.08
2017-05-26T02:32:40.459Z,27.75
2017-05-26T02:35:15.710Z,31.77
2017-05-26T02:37:50.795Z,37.97
2017-05-26T02:40:26.284Z,28.90
2017-05-26T02:43:01.711Z,32.53
2017-05-26T02:45:36.970Z,24.05
2017-05-26T02:48:12.328Z,33.13
2017-05-26T02:50:47.583Z,27.00
2017-05-26T02:53:22.803Z,28.87
2017-05-26T02:55:58.008Z,29.10
2017-05-26T02:58:33.282Z,25.62
2017-05-26T03:01:08.598Z,32.72
2017-05-26T03:03:43.939Z,31.55
2017-05-26T03:06:19.370Z,27.38
2017-05-26T03:08:54.714Z,28.42
2017-05-26T03:11:30.194Z,28.75
2017-05-26T03:14:05.446Z,27.17
2017-05-26T03:16:40.883Z,26.70
2017-05-26T03:19:16.194Z,21.45
2017-05-26T03:21:51.728Z,25.25
2017-05-26T03:24:26.913Z,25.20
2017-05-26T03:27:02.223Z,20.88
2017-05-26T03:29:37.350Z,23.82
2017-05-26T03:32:12.924Z,21.60
2017-05-26T03:34:48.330Z,21.83
2017-05-26T03:37:23.899Z,21.30
2017-05-26T03:39:59.183Z,17.48
2017-05-26T03:42:34.614Z,20.60
2017-05-26T03:45:09.987Z,22.38
2017-05-26T03:47:45.368Z,19.98
2017-05-26T03:50:20.617Z,17.00
2017-05-26T03:52:56.173Z,17.30
2017-05-26T03:55:31.358Z,14.55
2017-05-26T03:58:06.809Z,18.43
2017-05-26T04:00:42.106Z,18.30
2017-05-26T04:03:17.567Z,18.78
2017-05-26T04:05:52.922Z,17.60
2017-05-26T04:08:28.228Z,15.88
2017-05-26T04:11:03.613Z,13.22
2017-05-26T04:13:38.892Z,16.43
2017-05-26T04:16:14.282Z,17.57
2017-05-26T04:18:49.690Z,14.35
2017-05-26T04:21:25.078Z,12.25
2017-05-26T04:24:00.470Z,15.92
2017-05-26T04:26:35.776Z,13.98
2017-05-26T04:29:11.468Z,14.60
2017-05-26T04:31:46.675Z,13.25
2017-05-26T04:34:22.286Z,16.15
2017-05-26T04:36:58.480Z,15.32
2017-05-26T04:39:33.910Z,13.25
2017-05-26T04:42:09.917Z,14.03
2017-05-26T04:44:45.129Z,13.78
2017-05-26T04:47:20.298Z,12.72
2017-05-26T04:49:55.609Z,12.60
2017-05-26T04:52:30.928Z,13.77
2017-05-26T04:55:06.683Z,10.47
2017-05-26T04:57:41.898Z,14.12
2017-05-26T05:00:17.471Z,10.33
2017-05-26T05:02:52.651Z,11.62
2017-05-26T05:05:28.039Z,9.85
2017-05-26T05:08:03.213Z,10.80
2017-05-26T05:10:38.469Z,12.62
2017-05-26T05:13:13.703Z,11.00
2017-05-26T05:15:49.104Z,13.62
2017-05-26T05:18:24.406Z,11.17
2017-05-26T05:20:59.769Z,9.07
2017-05-26T05:23:35.105Z,11.12
2017-05-26T05:26:10.574Z,9.60
2017-05-26T05:28:45.940Z,11.12
2017-05-26T05:31:21.354Z,11.10
2017-05-26T05:33:56.651Z,9.97
2017-05-26T05:36:32.078Z,10.83
2017-05-26T05:39:07.345Z,10.27
2017-05-26T05:41:42.882Z,9.80
2017-05-26T05:44:18.191Z,11.27
2017-05-26T05:46:53.494Z,10.43
2017-05-26T05:49:28.885Z,9.03
2017-05-26T05:52:04.154Z,9.02
2017-05-26T05:54:39.350Z,7.82
2017-05-26T05:57:14.698Z,8.45
2017-05-26T05:59:49.941Z,8.58
2017-05-26T06:02:25.231Z,10.00
2017-05-26T06:05:00.597Z,8.95
2017-05-26T06:07:35.873Z,8.97
2017-05-26T06:10:11.307Z,9.87
2017-05-26T06:12:46.940Z,10.05
2017-05-26T06:15:22.280Z,8.38
2017-05-26T06:17:57.534Z,9.85
2017-05-26T06:20:32.801Z,9.32
2017-05-26T06:23:08.178Z,8.52
2017-05-26T06:25:43.497Z,7.67
2017-05-26T06:28:18.874Z,8.18
2017-05-26T06:30:54.146Z,7.45
2017-05-26T06:33:29.529Z,6.82
2017-05-26T06:36:04.815Z,6.60
2017-05-26T06:38:40.039Z,7.08
2017-05-26T06:41:15.359Z,7.17
2017-05-26T06:43:50.733Z,7.63
2017-05-26T06:46:25.910Z,9.12
2017-05-26T06:49:01.200Z,6.47
2017-05-26T06:51:36.438Z,6.82
2017-05-26T06:54:11.850Z,5.57
2017-05-26T06:56:47.135Z,6.75
2017-05-26T06:59:22.443Z,6.30
2017-05-26T07:01:57.733Z,5.93
2017-05-26T07:04:33.198Z,5.43
2017-05-26T07:07:08.600Z,6.43
2017-05-26T07:09:43.848Z,7.82
2017-05-26T07:12:20.687Z,9.02
2017-05-26T07:14:56.148Z,7.85
2017-05-26T07:17:31.423Z,8.75
2017-05-26T07:20:06.828Z,10.40
2017-05-26T07:22:46.659Z,7.78
2017-05-26T07:25:28.182Z,7.08
2017-05-26T07:28:09.991Z,7.00
2017-05-26T07:30:52.643Z,8.58
2017-05-26T07:33:33.700Z,6.43
2017-05-26T07:36:14.323Z,7.30
2017-05-26T07:38:55.788Z,7.13
2017-05-26T07:41:38.262Z,7.12
2017-05-26T07:44:19.372Z,7.42
2017-05-26T07:47:03.939Z,7.15
2017-05-26T07:49:44.965Z,6.30
2017-05-26T07:52:27.922Z,8.32
2017-05-26T07:55:09.391Z,9.18
2017-05-26T07:57:51.306Z,7.00
2017-05-26T08:00:27.533Z,7.77
2017-05-26T08:03:03.172Z,8.13
2017-05-26T08:05:38.541Z,6.05
2017-05-26T08:08:13.823Z,7.40
2017-05-26T08:10:49.081Z,8.62
2017-05-26T08:13:24.292Z,7.65
2017-05-26T08:15:59.589Z,7.78
2017-05-26T08:18:34.919Z,7.52
2017-05-26T08:21:10.303Z,7.85
2017-05-26T08:23:45.478Z,8.07
2017-05-26T08:26:20.890Z,7.52
2017-05-26T08:29:01.062Z,7.45
2017-05-26T08:31:43.270Z,7.98
2017-05-26T08:34:18.654Z,8.70
2017-05-26T08:36:54.066Z,9.23
2017-05-26T08:39:29.433Z,7.80
2017-05-26T08:42:04.862Z,7.80
2017-05-26T08:44:40.351Z,7.10
2017-05-26T08:47:15.654Z,6.60
2017-05-26T08:49:51.121Z,9.52
2017-05-26T08:52:26.308Z,6.74
2017-05-26T08:55:01.801Z,7.40
2017-05-26T08:57:37.167Z,6.88
2017-05-26T09:00:12.429Z,7.04
2017-05-26T09:02:47.735Z,8.10
2017-05-26T09:05:23.088Z,6.34
2017-05-26T09:07:58.480Z,6.78
2017-05-26T09:10:34.138Z,6.74
2017-05-26T09:13:09.341Z,6.56
2017-05-26T09:15:44.583Z,6.96
2017-05-26T09:18:19.905Z,7.88
2017-05-26T09:20:55.429Z,7.96
2017-05-26T09:23:30.668Z,6.84
2017-05-26T09:26:05.900Z,6.22
2017-05-26T09:28:41.121Z,7.48
2017-05-26T09:31:16.365Z,6.26
2017-05-26T09:33:51.700Z,6.48
2017-05-26T09:36:27.042Z,7.44
2017-05-26T09:39:02.198Z,7.36
2017-05-26T09:41:37.774Z,6.54
2017-05-26T09:44:13.083Z,5.02
2017-05-26T09:46:48.371Z,5.58
2017-05-26T09:49:23.658Z,7.04
2017-05-26T09:51:59.190Z,6.84
2017-05-26T09:54:34.569Z,5.74
2017-05-26T09:57:10.163Z,6.64
2017-05-26T09:59:45.332Z,6.54
2017-05-26T10:02:21.111Z,9.92
2017-05-26T10:04:56.429Z,5.94
2017-05-26T10:07:31.667Z,6.68
2017-05-26T10:10:07.108Z,6.86
2017-05-26T10:12:42.311Z,6.22
2017-05-26T10:15:17.650Z,6.10
2017-05-26T10:17:52.852Z,7.98
2017-05-26T10:20:28.191Z,6.90
2017-05-26T10:23:03.572Z,7.26
2017-05-26T10:25:38.805Z,6.96
2017-05-26T10:28:14.392Z,6.28
2017-05-26T10:30:53.916Z,6.56
2017-05-26T10:33:38.689Z,7.58
2017-05-26T10:36:19.415Z,6.84
2017-05-26T10:38:54.701Z,8.48
2017-05-26T10:41:30.088Z,6.90
2017-05-26T10:44:05.473Z,6.48
2017-05-26T10:46:40.691Z,7.76
2017-05-26T10:49:15.975Z,7.38
2017-05-26T10:51:51.190Z,6.86
2017-05-26T10:54:31.022Z,7.34
2017-05-26T10:57:06.391Z,6.08
2017-05-26T10:59:41.781Z,7.04
2017-05-26T11:02:16.914Z,6.62
2017-05-26T11:04:52.294Z,7.08
2017-05-26T11:07:27.554Z,11.00
2017-05-26T11:10:02.905Z,7.74
2017-05-26T11:12:38.133Z,7.86
2017-05-26T11:15:13.346Z,6.52
2017-05-26T11:17:48.650Z,6.58
2017-05-26T11:20:23.832Z,5.36
2017-05-26T11:22:59.126Z,5.38
2017-05-26T11:25:34.425Z,5.96
2017-05-26T11:28:09.848Z,4.42
2017-05-26T11:30:45.097Z,4.96
2017-05-26T11:33:20.421Z,5.12
2017-05-26T11:35:55.639Z,4.26
2017-05-26T11:38:31.011Z,6.06
2017-05-26T11:41:07.516Z,11.60
2017-05-26T11:43:43.506Z,4.44
2017-05-26T11:46:18.759Z,5.42
2017-05-26T11:48:54.062Z,4.88
2017-05-26T11:51:29.360Z,4.96
2017-05-26T11:54:04.808Z,5.26
2017-05-26T11:56:39.994Z,5.16
2017-05-26T11:59:15.452Z,5.16
2017-05-26T12:01:50.747Z,4.10
2017-05-26T12:04:26.895Z,4.98
2017-05-26T12:07:02.230Z,4.96
2017-05-26T12:09:37.653Z,6.18
2017-05-26T12:12:13.051Z,5.24
2017-05-26T12:14:48.510Z,4.78
2017-05-26T12:17:23.724Z,5.68
2017-05-26T12:19:59.050Z,5.06
2017-05-26T12:22:34.353Z,7.26
2017-05-26T12:25:09.724Z,6.30
2017-05-26T12:27:45.068Z,5.60
2017-05-26T12:30:20.600Z,5.54
2017-05-26T12:32:56.154Z,5.82
2017-05-26T12:35:31.799Z,6.16
2017-05-26T12:38:07.098Z,5.26
2017-05-26T12:40:42.427Z,8.36
2017-05-26T12:43:18.607Z,5.42
2017-05-26T12:45:54.073Z,5.76
2017-05-26T12:48:29.332Z,6.72
2017-05-26T12:51:04.693Z,6.10
2017-05-26T12:53:39.859Z,4.52
2017-05-26T12:56:15.154Z,3.72
2017-05-26T12:58:50.377Z,3.58
2017-05-26T13:01:25.774Z,3.34
2017-05-26T13:04:01.045Z,3.02
2017-05-26T13:06:36.368Z,2.94
2017-05-26T13:09:11.668Z,3.30
2017-05-26T13:11:46.924Z,5.38
2017-05-26T13:14:22.058Z,3.34
2017-05-26T13:16:57.397Z,2.18
2017-05-26T13:19:32.597Z,2.96
2017-05-26T13:22:07.892Z,2.50
2017-05-26T13:24:43.331Z,2.14
2017-05-26T13:27:18.653Z,2.48
2017-05-26T13:29:53.950Z,2.28
2017-05-26T13:32:29.261Z,3.12
2017-05-26T13:35:04.655Z,5.04
2017-05-26T13:37:40.179Z,2.58
2017-05-26T13:40:15.422Z,2.48
2017-05-26T13:42:50.778Z,2.24
2017-05-26T13:45:26.106Z,3.52
2017-05-26T13:48:01.422Z,2.02
2017-05-26T13:50:36.688Z,4.12
2017-05-26T13:53:12.010Z,2.60
2017-05-26T13:55:47.251Z,2.92
2017-05-26T13:58:22.510Z,2.26
2017-05-26T14:00:57.838Z,2.44
2017-05-26T14:03:33.234Z,3.74
2017-05-26T14:06:08.528Z,2.56
2017-05-26T14:08:43.864Z,3.34
2017-05-26T14:11:19.259Z,2.24
2017-05-26T14:13:54.622Z,2.62
2017-05-26T14:16:29.886Z,5.92
2017-05-26T14:19:05.281Z,2.20
2017-05-26T14:21:40.463Z,1.80
2017-05-26T14:24:15.897Z,2.08
2017-05-26T14:26:51.888Z,2.42
2017-05-26T14:29:28.567Z,3.00
2017-05-26T14:32:09.918Z,2.86
2017-05-26T14:34:47.099Z,2.40
2017-05-26T14:37:22.790Z,2.06
2017-05-26T14:39:58.138Z,1.94
2017-05-26T14:42:33.418Z,2.56
2017-05-26T14:45:08.630Z,5.10
2017-05-26T14:47:43.878Z,2.40
2017-05-26T14:50:19.209Z,1.88
2017-05-26T14:52:54.418Z,2.34
2017-05-26T14:55:29.766Z,4.82
2017-05-26T14:58:05.060Z,3.68
2017-05-26T15:00:40.510Z,4.44
2017-05-26T15:03:15.871Z,4.12
2017-05-26T15:05:51.150Z,2.86
2017-05-26T15:08:26.429Z,3.24
2017-05-26T15:11:01.935Z,2.68
2017-05-26T15:13:37.257Z,3.14
2017-05-26T15:16:12.681Z,3.82
2017-05-26T15:18:48.157Z,1.82
2017-05-26T15:21:24.022Z,1.84
2017-05-26T15:23:59.136Z,1.64
2017-05-26T15:26:34.497Z,2.40
2017-05-26T15:29:09.849Z,1.34
2017-05-26T15:31:45.195Z,1.20
2017-05-26T15:34:20.427Z,1.50
2017-05-26T15:36:57.538Z,2.16
2017-05-26T15:39:32.869Z,2.02
2017-05-26T15:42:08.054Z,3.64
2017-05-26T15:44:43.341Z,1.36
2017-05-26T15:47:18.769Z,10.34
2017-05-26T15:49:54.160Z,3.16
2017-05-26T15:52:29.373Z,5.60
2017-05-26T15:55:04.642Z,1.76
2017-05-26T15:57:40.005Z,2.50
2017-05-26T16:00:15.295Z,2.10
2017-05-26T16:02:50.699Z,2.70
2017-05-26T16:05:26.080Z,1.84
2017-05-26T16:08:01.234Z,2.90
2017-05-26T16:10:36.458Z,1.30
2017-05-26T16:13:11.757Z,2.08
2017-05-26T16:15:47.081Z,1.68
2017-05-26T16:18:22.242Z,1.60
2017-05-26T16:20:57.586Z,1.50
2017-05-26T16:23:32.982Z,1.14
2017-05-26T16:26:08.329Z,2.40
2017-05-26T16:28:43.906Z,2.38
2017-05-26T16:31:19.200Z,1.60
2017-05-26T16:33:54.551Z,3.02
2017-05-26T16:36:29.883Z,3.08
2017-05-26T16:39:05.129Z,2.90
2017-05-26T16:41:40.429Z,4.94
2017-05-26T16:44:15.754Z,5.76
2017-05-26T16:46:50.889Z,2.20
2017-05-26T16:49:30.960Z,3.60
2017-05-26T16:52:11.859Z,2.54
2017-05-26T16:54:48.249Z,3.22
2017-05-26T16:57:25.191Z,5.22
2017-05-26T17:00:01.207Z,2.84
2017-05-26T17:02:37.491Z,3.42
2017-05-26T17:05:12.862Z,2.28
2017-05-26T17:07:48.194Z,2.54
2017-05-26T17:10:23.647Z,2.28
2017-05-26T17:12:58.963Z,4.40
2017-05-26T17:15:34.405Z,5.66
2017-05-26T17:18:09.747Z,3.90
2017-05-26T17:20:45.176Z,3.40
2017-05-26T17:23:20.530Z,4.98
2017-05-26T17:25:56.362Z,6.94
2017-05-26T17:28:31.571Z,6.86
2017-05-26T17:31:11.393Z,4.82
2017-05-26T17:33:46.899Z,3.62
2017-05-26T17:36:22.526Z,3.74
2017-05-26T17:38:57.825Z,2.76
2017-05-26T17:41:33.221Z,2.04
2017-05-26T17:44:08.516Z,3.12
2017-05-26T17:46:44.235Z,2.22
2017-05-26T17:49:19.479Z,2.44
2017-05-26T17:51:54.921Z,4.66
2017-05-26T17:54:30.356Z,2.70
2017-05-26T17:57:05.907Z,2.70
2017-05-26T17:59:41.718Z,2.14
2017-05-26T18:02:22.079Z,2.28
2017-05-26T18:04:58.637Z,4.98
2017-05-26T18:07:33.880Z,5.62
2017-05-26T18:10:09.179Z,4.04
2017-05-26T18:12:44.426Z,2.98
2017-05-26T18:15:19.725Z,3.62
2017-05-26T18:17:54.953Z,4.98
2017-05-26T18:20:30.202Z,3.64
2017-05-26T18:23:05.659Z,2.82
2017-05-26T18:25:41.720Z,8.96
2017-05-26T18:28:17.238Z,3.18
2017-05-26T18:30:52.590Z,2.10
2017-05-26T18:33:27.798Z,2.60
2017-05-26T18:36:03.084Z,3.24
2017-05-26T18:38:38.342Z,3.12
2017-05-26T18:41:13.702Z,3.84
2017-05-26T18:43:49.033Z,2.34
2017-05-26T18:46:25.264Z,4.50
2017-05-26T18:49:00.603Z,2.16
2017-05-26T18:51:36.110Z,2.50
2017-05-26T18:54:11.378Z,2.40
2017-05-26T18:56:46.828Z,2.10
2017-05-26T18:59:22.135Z,3.56
2017-05-26T19:01:57.399Z,4.32
2017-05-26T19:04:32.792Z,3.78
2017-05-26T19:07:08.077Z,3.06
2017-05-26T19:09:43.621Z,3.28
2017-05-26T19:12:18.847Z,3.32
2017-05-26T19:14:54.169Z,3.66
2017-05-26T19:17:29.468Z,3.28
2017-05-26T19:20:05.064Z,4.70
2017-05-26T19:22:40.467Z,5.44
2017-05-26T19:25:16.065Z,5.94
2017-05-26T19:27:51.254Z,7.14
2017-05-26T19:30:26.549Z,8.68
2017-05-26T19:33:02.053Z,11.22
2017-05-26T19:35:37.323Z,9.70
2017-05-26T19:38:12.774Z,8.17
2017-05-26T19:40:48.204Z,6.45
2017-05-26T19:43:23.641Z,11.68
2017-05-26T19:45:59.138Z,8.33
2017-05-26T19:48:34.402Z,7.63
2017-05-26T19:51:09.871Z,7.92
2017-05-26T19:53:45.312Z,8.27
2017-05-26T19:56:21.601Z,10.80
2017-05-26T19:58:57.010Z,10.02
2017-05-26T20:01:32.369Z,8.72
2017-05-26T20:04:07.729Z,8.00
2017-05-26T20:06:43.144Z,5.78
2017-05-26T20:09:18.514Z,4.42
2017-05-26T20:11:53.830Z,4.03
2017-05-26T20:14:29.231Z,4.38
2017-05-26T20:17:04.669Z,4.48
2017-05-26T20:19:39.932Z,5.03
2017-05-26T20:22:15.258Z,4.18
2017-05-26T20:24:50.558Z,6.40
2017-05-26T20:27:25.829Z,4.43
2017-05-26T20:30:01.159Z,7.20
2017-05-26T20:32:36.373Z,4.25
2017-05-26T20:35:11.642Z,4.85
2017-05-26T20:37:47.015Z,4.35
2017-05-26T20:40:22.434Z,4.65
2017-05-26T20:42:58.051Z,5.97
2017-05-26T20:45:33.363Z,4.57
2017-05-26T20:48:08.852Z,5.13
2017-05-26T20:50:44.186Z,4.28
2017-05-26T20:53:19.477Z,3.85
2017-05-26T20:55:54.761Z,3.82
2017-05-26T20:58:30.001Z,4.77
2017-05-26T21:01:05.295Z,4.68
2017-05-26T21:03:40.643Z,5.38
2017-05-26T21:06:16.063Z,5.65
2017-05-26T21:08:51.829Z,6.27
2017-05-26T21:11:27.257Z,6.17
2017-05-26T21:14:02.814Z,6.93
2017-05-26T21:16:38.170Z,5.07
2017-05-26T21:19:13.484Z,5.17
2017-05-26T21:21:48.911Z,4.18
2017-05-26T21:24:24.311Z,5.92
2017-05-26T21:26:59.727Z,5.00
2017-05-26T21:29:35.066Z,4.70
2017-05-26T21:32:10.382Z,4.40
2017-05-26T21:34:46.317Z,9.47
2017-05-26T21:37:21.581Z,4.97
2017-05-26T21:39:56.918Z,6.32
2017-05-26T21:42:32.370Z,6.13
2017-05-26T21:45:07.651Z,6.35
2017-05-26T21:47:42.826Z,5.72
2017-05-26T21:50:18.049Z,11.12
2017-05-26T21:52:53.315Z,6.72
2017-05-26T21:55:28.698Z,7.28
2017-05-26T21:58:04.022Z,8.53
2017-05-26T22:00:39.254Z,6.88
2017-05-26T22:03:14.602Z,5.65
2017-05-26T22:05:49.823Z,5.32
2017-05-26T22:08:25.191Z,6.13
2017-05-26T22:11:00.524Z,5.47
2017-05-26T22:13:35.954Z,5.03
2017-05-26T22:16:11.244Z,4.15
2017-05-26T22:18:46.617Z,4.63
2017-05-26T22:21:21.885Z,7.30
2017-05-26T22:23:57.311Z,5.60
2017-05-26T22:26:32.597Z,4.85
2017-05-26T22:29:07.883Z,5.72
2017-05-26T22:31:43.459Z,6.23
2017-05-26T22:34:18.660Z,4.95
2017-05-26T22:36:55.515Z,7.87
2017-05-26T22:39:31.696Z,6.22
2017-05-26T22:42:07.074Z,6.03
2017-05-26T22:44:42.299Z,4.95
2017-05-26T22:47:17.545Z,5.25
2017-05-26T22:49:52.830Z,5.87
2017-05-26T22:52:28.119Z,6.47
2017-05-26T22:55:04.311Z,6.68
2017-05-26T22:57:39.499Z,9.25
2017-05-26T23:00:14.833Z,4.82
2017-05-26T23:02:50.104Z,6.67
2017-05-26T23:05:25.357Z,4.18
2017-05-26T23:08:00.669Z,6.17
2017-05-26T23:10:35.877Z,6.28
2017-05-26T23:13:11.379Z,5.57
2017-05-26T23:15:46.551Z,4.47
2017-05-26T23:18:21.970Z,4.55
2017-05-26T23:20:57.280Z,3.57
2017-05-26T23:23:32.612Z,4.77
2017-05-26T23:26:07.929Z,3.08
2017-05-26T23:28:43.147Z,3.82
2017-05-26T23:31:18.479Z,3.80
2017-05-26T23:33:53.780Z,3.05
2017-05-26T23:36:29.052Z,4.50
2017-05-26T23:39:04.471Z,5.32
2017-05-26T23:41:39.749Z,3.87
2017-05-26T23:44:15.185Z,4.33
2017-05-26T23:46:50.873Z,4.80
2017-05-26T23:49:26.145Z,4.22
2017-05-26T23:52:01.398Z,4.13
2017-05-26T23:54:36.791Z,4.52
2017-05-26T23:57:12.098Z,3.95
2017-05-26T23:59:47.386Z,2.85
